sensor_id;sensor_type;location;lat;lon;timestamp;pressure;altitude;pressure_sealevel;temperature;humidity
18985;BME280;9626;52.552;13.436;2022-12-11T00:00:21;100496.00;;;-1.61;100.00
18985;BME280;9626;52.552;13.436;2022-12-11T00:02:48;100493.25;;;-1.65;100.00
18985;BME280;9626;52.552;13.436;2022-12-11T00:05:14;100492.94;;;-1.78;100.00
18985;BME280;9626;52.552;13.436;2022-12-11T00:07:40;100491.09;;;-1.82;100.00
18985;BME280;9626;52.552;13.436;2022-12-11T00:10:06;100503.31;;;-1.78;100.00
18985;BME280;9626;52.552;13.436;2022-12-11T00:12:32;100491.31;;;-1.74;100.00
18985;BME280;9626;52.552;13.436;2022-12-11T00:14:58;100494.84;;;-1.71;100.00
18985;BME280;9626;52.552;13.436;2022-12-11T00:17:24;100493.13;;;-1.72;100.00
18985;BME280;9626;52.552;13.436;2022-12-11T00:19:50;100483.56;;;-1.73;100.00
18985;BME280;9626;52.552;13.436;2022-12-11T00:22:16;100492.19;;;-1.74;100.00
18985;BME280;9626;52.552;13.436;2022-12-11T00:24:42;100487.19;;;-1.66;100.00
18985;BME280;9626;52.552;13.436;2022-12-11T00:27:08;100485.69;;;-1.58;100.00
18985;BME280;9626;52.552;13.436;2022-12-11T00:29:34;100485.91;;;-1.50;100.00
18985;BME280;9626;52.552;13.436;2022-12-11T00:32:00;100489.47;;;-1.45;100.00
18985;BME280;9626;52.552;13.436;2022-12-11T00:34:26;100493.81;;;-1.45;100.00
18985;BME280;9626;52.552;13.436;2022-12-11T00:36:52;100493.69;;;-1.50;100.00
18985;BME280;9626;52.552;13.436;2022-12-11T00:39:18;100491.03;;;-1.51;100.00
18985;BME280;9626;52.552;13.436;2022-12-11T00:41:44;100490.84;;;-1.59;100.00
18985;BME280;9626;52.552;13.436;2022-12-11T00:44:10;100491.63;;;-1.62;100.00
18985;BME280;9626;52.552;13.436;2022-12-11T00:46:36;100490.66;;;-1.65;100.00
18985;BME280;9626;52.552;13.436;2022-12-11T00:49:02;100488.91;;;-1.66;100.00
18985;BME280;9626;52.552;13.436;2022-12-11T00:51:29;100493.19;;;-1.68;100.00
18985;BME280;9626;52.552;13.436;2022-12-11T00:53:55;100493.25;;;-1.65;100.00
18985;BME280;9626;52.552;13.436;2022-12-11T00:56:21;100488.06;;;-1.65;100.00
18985;BME280;9626;52.552;13.436;2022-12-11T00:58:48;100491.34;;;-1.73;100.00
18985;BME280;9626;52.552;13.436;2022-12-11T01:01:17;100492.13;;;-1.75;100.00
18985;BME280;9626;52.552;13.436;2022-12-11T01:03:43;100488.09;;;-1.64;100.00
18985;BME280;9626;52.552;13.436;2022-12-11T01:06:14;100490.75;;;-1.62;100.00
18985;BME280;9626;52.552;13.436;2022-12-11T01:08:41;100483.06;;;-1.59;100.00
18985;BME280;9626;52.552;13.436;2022-12-11T01:11:10;100486.41;;;-1.63;100.00
18985;BME280;9626;52.552;13.436;2022-12-11T01:13:37;100488.28;;;-1.58;100.00
18985;BME280;9626;52.552;13.436;2022-12-11T01:16:09;100493.44;;;-1.59;100.00
18985;BME280;9626;52.552;13.436;2022-12-11T01:18:36;100491.81;;;-1.54;100.00
18985;BME280;9626;52.552;13.436;2022-12-11T01:21:11;100494.50;;;-1.52;100.00
18985;BME280;9626;52.552;13.436;2022-12-11T01:23:39;100500.47;;;-1.55;100.00
18985;BME280;9626;52.552;13.436;2022-12-11T01:26:11;100501.34;;;-1.55;100.00
18985;BME280;9626;52.552;13.436;2022-12-11T01:28:38;100506.50;;;-1.56;100.00
18985;BME280;9626;52.552;13.436;2022-12-11T01:31:12;100503.78;;;-1.61;100.00
18985;BME280;9626;52.552;13.436;2022-12-11T01:33:39;100498.47;;;-1.65;100.00
18985;BME280;9626;52.552;13.436;2022-12-11T01:36:11;100500.97;;;-1.68;100.00
18985;BME280;9626;52.552;13.436;2022-12-11T01:38:37;100502.75;;;-1.67;100.00
18985;BME280;9626;52.552;13.436;2022-12-11T01:41:03;100496.53;;;-1.73;100.00
18985;BME280;9626;52.552;13.436;2022-12-11T01:43:29;100505.31;;;-1.69;100.00
18985;BME280;9626;52.552;13.436;2022-12-11T01:45:55;100496.66;;;-1.68;100.00
18985;BME280;9626;52.552;13.436;2022-12-11T01:48:25;100498.38;;;-1.68;100.00
18985;BME280;9626;52.552;13.436;2022-12-11T01:50:55;100493.16;;;-1.70;100.00
18985;BME280;9626;52.552;13.436;2022-12-11T01:53:29;100490.34;;;-1.78;100.00
18985;BME280;9626;52.552;13.436;2022-12-11T01:55:57;100498.03;;;-1.81;100.00
18985;BME280;9626;52.552;13.436;2022-12-11T01:58:28;100501.44;;;-1.83;100.00
18985;BME280;9626;52.552;13.436;2022-12-11T02:00:57;100505.81;;;-1.82;100.00
18985;BME280;9626;52.552;13.436;2022-12-11T02:03:23;100504.94;;;-1.81;100.00
18985;BME280;9626;52.552;13.436;2022-12-11T02:05:49;100498.09;;;-1.79;100.00
18985;BME280;9626;52.552;13.436;2022-12-11T02:08:19;100503.16;;;-1.84;100.00
18985;BME280;9626;52.552;13.436;2022-12-11T02:11:19;100488.41;;;-1.85;100.00
18985;BME280;9626;52.552;13.436;2022-12-11T02:13:53;100489.28;;;-1.84;100.00
18985;BME280;9626;52.552;13.436;2022-12-11T02:16:59;100500.78;;;-1.75;100.00
18985;BME280;9626;52.552;13.436;2022-12-11T02:20:14;100499.88;;;-1.77;100.00
18985;BME280;9626;52.552;13.436;2022-12-11T02:25:43;100498.03;;;-1.81;100.00
18985;BME280;9626;52.552;13.436;2022-12-11T02:28:18;100508.50;;;-1.78;100.00
18985;BME280;9626;52.552;13.436;2022-12-11T02:30:51;100500.59;;;-1.82;100.00
18985;BME280;9626;52.552;13.436;2022-12-11T02:33:25;100507.47;;;-1.84;100.00
18985;BME280;9626;52.552;13.436;2022-12-11T02:35:53;100504.59;;;-1.94;100.00
18985;BME280;9626;52.552;13.436;2022-12-11T02:38:25;100503.84;;;-1.90;100.00
18985;BME280;9626;52.552;13.436;2022-12-11T02:40:56;100492.63;;;-1.89;100.00
18985;BME280;9626;52.552;13.436;2022-12-11T02:43:24;100495.28;;;-1.87;100.00
18985;BME280;9626;52.552;13.436;2022-12-11T02:45:50;100492.59;;;-1.90;100.00
18985;BME280;9626;52.552;13.436;2022-12-11T02:48:19;100500.41;;;-1.89;100.00
18985;BME280;9626;52.552;13.436;2022-12-11T02:50:50;100487.47;;;-1.87;100.00
18985;BME280;9626;52.552;13.436;2022-12-11T02:53:19;100485.81;;;-1.85;100.00
18985;BME280;9626;52.552;13.436;2022-12-11T02:55:51;100484.81;;;-1.90;100.00
18985;BME280;9626;52.552;13.436;2022-12-11T02:58:23;100493.47;;;-1.90;100.00
18985;BME280;9626;52.552;13.436;2022-12-11T03:00:51;100483.91;;;-1.92;100.00
18985;BME280;9626;52.552;13.436;2022-12-11T03:03:17;100486.34;;;-1.97;100.00
18985;BME280;9626;52.552;13.436;2022-12-11T03:05:43;100488.91;;;-1.98;100.00
18985;BME280;9626;52.552;13.436;2022-12-11T03:08:30;100480.38;;;-1.94;100.00
18985;BME280;9626;52.552;13.436;2022-12-11T03:11:15;100483.72;;;-1.98;100.00
18985;BME280;9626;52.552;13.436;2022-12-11T03:13:41;100488.84;;;-2.01;100.00
18985;BME280;9626;52.552;13.436;2022-12-11T03:16:29;100485.38;;;-2.00;100.00
18985;BME280;9626;52.552;13.436;2022-12-11T03:21:33;100497.63;;;-1.96;100.00
18985;BME280;9626;52.552;13.436;2022-12-11T03:24:38;100486.34;;;-1.97;100.00
18985;BME280;9626;52.552;13.436;2022-12-11T03:27:15;100490.72;;;-1.96;100.00
18985;BME280;9626;52.552;13.436;2022-12-11T03:30:10;100495.97;;;-1.93;100.00
18985;BME280;9626;52.552;13.436;2022-12-11T03:33:02;100496.22;;;-1.85;100.00
18985;BME280;9626;52.552;13.436;2022-12-11T03:35:32;100494.38;;;-1.89;100.00
18985;BME280;9626;52.552;13.436;2022-12-11T03:38:03;100491.69;;;-1.92;100.00
18985;BME280;9626;52.552;13.436;2022-12-11T03:40:31;100499.75;;;-1.81;100.00
18985;BME280;9626;52.552;13.436;2022-12-11T03:43:01;100493.75;;;-1.79;100.00
18985;BME280;9626;52.552;13.436;2022-12-11T03:45:29;100492.13;;;-1.75;100.00
18985;BME280;9626;52.552;13.436;2022-12-11T03:47:57;100494.69;;;-1.77;100.00
18985;BME280;9626;52.552;13.436;2022-12-11T03:50:27;100487.75;;;-1.78;100.00
18985;BME280;9626;52.552;13.436;2022-12-11T03:52:55;100485.09;;;-1.79;100.00
18985;BME280;9626;52.552;13.436;2022-12-11T03:55:23;100490.41;;;-1.75;100.00
18985;BME280;9626;52.552;13.436;2022-12-11T03:57:51;100478.22;;;-1.77;100.00
18985;BME280;9626;52.552;13.436;2022-12-11T04:00:19;100476.56;;;-1.75;100.00
18985;BME280;9626;52.552;13.436;2022-12-11T04:02:45;100478.28;;;-1.76;100.00
18985;BME280;9626;52.552;13.436;2022-12-11T04:05:31;100479.19;;;-1.74;100.00
18985;BME280;9626;52.552;13.436;2022-12-11T04:07:57;100474.78;;;-1.76;100.00
18985;BME280;9626;52.552;13.436;2022-12-11T04:10:23;100472.97;;;-1.80;100.00
18985;BME280;9626;52.552;13.436;2022-12-11T04:12:49;100471.25;;;-1.80;100.00
18985;BME280;9626;52.552;13.436;2022-12-11T04:15:15;100467.84;;;-1.77;100.00
18985;BME280;9626;52.552;13.436;2022-12-11T04:17:41;100467.75;;;-1.80;100.00
18985;BME280;9626;52.552;13.436;2022-12-11T04:20:26;100472.97;;;-1.80;100.00
18985;BME280;9626;52.552;13.436;2022-12-11T04:23:13;100484.13;;;-1.83;100.00
18985;BME280;9626;52.552;13.436;2022-12-11T04:26:16;100463.47;;;-1.80;100.00
18985;BME280;9626;52.552;13.436;2022-12-11T04:28:44;100462.56;;;-1.80;100.00
18985;BME280;9626;52.552;13.436;2022-12-11T04:31:20;100477.28;;;-1.81;100.00
18985;BME280;9626;52.552;13.436;2022-12-11T04:33:46;100472.00;;;-1.84;100.00
18985;BME280;9626;52.552;13.436;2022-12-11T04:36:13;100472.91;;;-1.82;100.00
18985;BME280;9626;52.552;13.436;2022-12-11T04:38:39;100468.47;;;-1.86;100.00
18985;BME280;9626;52.552;13.436;2022-12-11T04:41:09;100459.69;;;-1.91;100.00
18985;BME280;9626;52.552;13.436;2022-12-11T04:43:35;100468.16;;;-1.98;100.00
18985;BME280;9626;52.552;13.436;2022-12-11T04:46:11;100459.69;;;-1.91;100.00
18985;BME280;9626;52.552;13.436;2022-12-11T04:48:38;100472.47;;;-1.99;100.00
18985;BME280;9626;52.552;13.436;2022-12-11T04:51:06;100476.16;;;-1.91;100.00
18985;BME280;9626;52.552;13.436;2022-12-11T04:53:33;100471.91;;;-1.87;100.00
18985;BME280;9626;52.552;13.436;2022-12-11T04:55:59;100465.91;;;-1.84;100.00
18985;BME280;9626;52.552;13.436;2022-12-11T04:58:26;100469.28;;;-1.89;100.00
18985;BME280;9626;52.552;13.436;2022-12-11T05:00:52;100466.75;;;-1.85;100.00
18985;BME280;9626;52.552;13.436;2022-12-11T05:03:19;100472.78;;;-1.88;100.00
18985;BME280;9626;52.552;13.436;2022-12-11T05:05:49;100475.25;;;-1.91;100.00
18985;BME280;9626;52.552;13.436;2022-12-11T05:08:17;100473.59;;;-1.89;100.00
18985;BME280;9626;52.552;13.436;2022-12-11T05:10:43;100470.06;;;-1.91;100.00
18985;BME280;9626;52.552;13.436;2022-12-11T05:13:09;100473.41;;;-1.95;100.00
18985;BME280;9626;52.552;13.436;2022-12-11T05:15:38;100469.19;;;-1.92;100.00
18985;BME280;9626;52.552;13.436;2022-12-11T05:18:05;100478.53;;;-1.98;100.00
18985;BME280;9626;52.552;13.436;2022-12-11T05:20:31;100469.91;;;-1.97;100.00
18985;BME280;9626;52.552;13.436;2022-12-11T05:22:57;100463.81;;;-1.98;100.00
18985;BME280;9626;52.552;13.436;2022-12-11T05:25:23;100466.22;;;-2.06;100.00
18985;BME280;9626;52.552;13.436;2022-12-11T05:27:49;100460.84;;;-2.12;100.00
18985;BME280;9626;52.552;13.436;2022-12-11T05:30:15;100452.19;;;-2.12;100.00
18985;BME280;9626;52.552;13.436;2022-12-11T05:32:41;100461.81;;;-2.08;100.00
18985;BME280;9626;52.552;13.436;2022-12-11T05:35:07;100460.03;;;-2.11;100.00
18985;BME280;9626;52.552;13.436;2022-12-11T05:37:33;100465.31;;;-2.06;100.00
18985;BME280;9626;52.552;13.436;2022-12-11T05:39:59;100467.84;;;-2.09;100.00
18985;BME280;9626;52.552;13.436;2022-12-11T05:42:25;100472.16;;;-2.10;100.00
18985;BME280;9626;52.552;13.436;2022-12-11T05:44:51;100462.69;;;-2.08;100.00
18985;BME280;9626;52.552;13.436;2022-12-11T05:47:17;100466.97;;;-2.10;100.00
18985;BME280;9626;52.552;13.436;2022-12-11T05:49:45;100465.31;;;-2.06;100.00
18985;BME280;9626;52.552;13.436;2022-12-11T05:52:12;100463.53;;;-2.09;100.00
18985;BME280;9626;52.552;13.436;2022-12-11T05:54:38;100460.84;;;-2.12;100.00
18985;BME280;9626;52.552;13.436;2022-12-11T05:57:04;100458.28;;;-2.10;100.00
18985;BME280;9626;52.552;13.436;2022-12-11T05:59:30;100448.81;;;-2.10;100.00
18985;BME280;9626;52.552;13.436;2022-12-11T06:01:56;100445.34;;;-2.09;100.00
18985;BME280;9626;52.552;13.436;2022-12-11T06:04:22;100450.53;;;-2.09;100.00
18985;BME280;9626;52.552;13.436;2022-12-11T06:06:48;100455.84;;;-2.06;100.00
18985;BME280;9626;52.552;13.436;2022-12-11T06:09:15;100446.28;;;-2.07;100.00
18985;BME280;9626;52.552;13.436;2022-12-11T06:11:41;100450.53;;;-2.09;100.00
18985;BME280;9626;52.552;13.436;2022-12-11T06:14:09;100452.16;;;-2.14;100.00
18985;BME280;9626;52.552;13.436;2022-12-11T06:16:36;100446.78;;;-2.20;100.00
18985;BME280;9626;52.552;13.436;2022-12-11T06:19:02;100455.50;;;-2.18;100.00
18985;BME280;9626;52.552;13.436;2022-12-11T06:21:31;100453.75;;;-2.19;100.00
18985;BME280;9626;52.552;13.436;2022-12-11T06:23:59;100451.88;;;-2.23;100.00
18985;BME280;9626;52.552;13.436;2022-12-11T06:26:26;100451.81;;;-2.26;100.00
18985;BME280;9626;52.552;13.436;2022-12-11T06:28:53;100444.16;;;-2.22;100.00
18985;BME280;9626;52.552;13.436;2022-12-11T06:31:19;100444.94;;;-2.24;100.00
18985;BME280;9626;52.552;13.436;2022-12-11T06:33:46;100449.31;;;-2.23;100.00
18985;BME280;9626;52.552;13.436;2022-12-11T06:36:18;100450.19;;;-2.21;100.00
18985;BME280;9626;52.552;13.436;2022-12-11T06:38:44;100448.47;;;-2.22;100.00
18985;BME280;9626;52.552;13.436;2022-12-11T06:41:11;100451.88;;;-2.23;100.00
18985;BME280;9626;52.552;13.436;2022-12-11T06:43:39;100451.97;;;-2.20;100.00
18985;BME280;9626;52.552;13.436;2022-12-11T06:46:06;100455.31;;;-2.24;100.00
18985;BME280;9626;52.552;13.436;2022-12-11T06:48:33;100453.53;;;-2.25;100.00
18985;BME280;9626;52.552;13.436;2022-12-11T06:50:59;100459.59;;;-2.26;100.00
18985;BME280;9626;52.552;13.436;2022-12-11T06:53:29;100464.03;;;-2.22;100.00
18985;BME280;9626;52.552;13.436;2022-12-11T06:55:55;100448.47;;;-2.22;100.00
18985;BME280;9626;52.552;13.436;2022-12-11T06:58:21;100457.06;;;-2.23;100.00
18985;BME280;9626;52.552;13.436;2022-12-11T07:00:47;100457.78;;;-2.29;100.00
18985;BME280;9626;52.552;13.436;2022-12-11T07:03:13;100461.91;;;-2.35;100.00
18985;BME280;9626;52.552;13.436;2022-12-11T07:05:39;100455.03;;;-2.33;100.00
18985;BME280;9626;52.552;13.436;2022-12-11T07:08:05;100459.44;;;-2.31;100.00
18985;BME280;9626;52.552;13.436;2022-12-11T07:10:32;100459.13;;;-2.42;100.00
18985;BME280;9626;52.552;13.436;2022-12-11T07:12:58;100456.25;;;-2.51;100.00
18985;BME280;9626;52.552;13.436;2022-12-11T07:15:23;100457.47;;;-2.40;100.00
18985;BME280;9626;52.552;13.436;2022-12-11T07:17:49;100456.84;;;-2.31;100.00
18985;BME280;9626;52.552;13.436;2022-12-11T07:20:16;100462.63;;;-2.41;100.00
18985;BME280;9626;52.552;13.436;2022-12-11T07:22:42;100460.69;;;-2.47;100.00
18985;BME280;9626;52.552;13.436;2022-12-11T07:25:08;100464.16;;;-2.48;100.00
18985;BME280;9626;52.552;13.436;2022-12-11T07:27:34;100468.31;;;-2.53;100.00
18985;BME280;9626;52.552;13.436;2022-12-11T07:30:00;100471.72;;;-2.54;100.00
18985;BME280;9626;52.552;13.436;2022-12-11T07:32:26;100481.28;;;-2.53;100.00
18985;BME280;9626;52.552;13.436;2022-12-11T07:34:52;100479.38;;;-2.59;100.00
18985;BME280;9626;52.552;13.436;2022-12-11T07:37:18;100473.31;;;-2.59;100.00
18985;BME280;9626;52.552;13.436;2022-12-11T07:39:44;100476.19;;;-2.50;100.00
18985;BME280;9626;52.552;13.436;2022-12-11T07:42:10;100478.84;;;-2.47;100.00
18985;BME280;9626;52.552;13.436;2022-12-11T07:44:36;100476.09;;;-2.53;100.00
18985;BME280;9626;52.552;13.436;2022-12-11T07:47:02;100472.72;;;-2.50;100.00
18985;BME280;9626;52.552;13.436;2022-12-11T07:49:28;100478.84;;;-2.47;100.00
18985;BME280;9626;52.552;13.436;2022-12-11T07:51:54;100477.28;;;-2.42;100.00
18985;BME280;9626;52.552;13.436;2022-12-11T07:54:21;100474.69;;;-2.42;100.00
18985;BME280;9626;52.552;13.436;2022-12-11T07:56:47;100476.50;;;-2.39;100.00
18985;BME280;9626;52.552;13.436;2022-12-11T07:59:13;100479.00;;;-2.42;100.00
18985;BME280;9626;52.552;13.436;2022-12-11T08:01:40;100479.50;;;-2.54;100.00
18985;BME280;9626;52.552;13.436;2022-12-11T08:04:10;100476.09;;;-2.53;100.00
18985;BME280;9626;52.552;13.436;2022-12-11T08:06:38;100482.19;;;-2.51;100.00
18985;BME280;9626;52.552;13.436;2022-12-11T08:09:07;100477.13;;;-2.48;100.00
18985;BME280;9626;52.552;13.436;2022-12-11T08:11:33;100489.22;;;-2.47;100.00
18985;BME280;9626;52.552;13.436;2022-12-11T08:13:59;100488.47;;;-2.43;100.00
18985;BME280;9626;52.552;13.436;2022-12-11T08:16:25;100487.38;;;-2.51;100.00
18985;BME280;9626;52.552;13.436;2022-12-11T08:18:52;100482.19;;;-2.51;100.00
18985;BME280;9626;52.552;13.436;2022-12-11T08:21:23;100490.91;;;-2.49;100.00
18985;BME280;9626;52.552;13.436;2022-12-11T08:23:50;100490.03;;;-2.49;100.00
18985;BME280;9626;52.552;13.436;2022-12-11T08:26:19;100490.91;;;-2.49;100.00
18985;BME280;9626;52.552;13.436;2022-12-11T08:28:45;100489.06;;;-2.53;100.00
18985;BME280;9626;52.552;13.436;2022-12-11T08:31:12;100497.66;;;-2.54;100.00
18985;BME280;9626;52.552;13.436;2022-12-11T08:33:40;100488.34;;;-2.47;100.00
18985;BME280;9626;52.552;13.436;2022-12-11T08:36:09;100485.09;;;-2.40;100.00
18985;BME280;9626;52.552;13.436;2022-12-11T08:38:35;100486.94;;;-2.36;100.00
18985;BME280;9626;52.552;13.436;2022-12-11T08:41:12;100491.31;;;-2.35;100.00
18985;BME280;9626;52.552;13.436;2022-12-11T08:43:39;100490.53;;;-2.32;100.00
18985;BME280;9626;52.552;13.436;2022-12-11T08:46:06;100492.28;;;-2.31;100.00
18985;BME280;9626;52.552;13.436;2022-12-11T08:48:33;100489.47;;;-2.39;100.00
18985;BME280;9626;52.552;13.436;2022-12-11T08:51:01;100492.13;;;-2.36;100.00
18985;BME280;9626;52.552;13.436;2022-12-11T08:53:28;100487.81;;;-2.37;100.00
18985;BME280;9626;52.552;13.436;2022-12-11T08:56:11;100486.16;;;-2.33;100.00
18985;BME280;9626;52.552;13.436;2022-12-11T08:58:38;100488.13;;;-2.26;100.00
18985;BME280;9626;52.552;13.436;2022-12-11T09:01:08;100483.88;;;-2.23;100.00
18985;BME280;9626;52.552;13.436;2022-12-11T09:03:36;100483.69;;;-2.30;100.00
18985;BME280;9626;52.552;13.436;2022-12-11T09:06:06;100483.50;;;-2.36;100.00
18985;BME280;9626;52.552;13.436;2022-12-11T09:08:33;100493.22;;;-2.29;100.00
18985;BME280;9626;52.552;13.436;2022-12-11T09:11:07;100489.69;;;-2.31;100.00
18985;BME280;9626;52.552;13.436;2022-12-11T09:13:34;100493.41;;;-2.23;100.00
18985;BME280;9626;52.552;13.436;2022-12-11T09:16:02;100488.28;;;-2.20;100.00
18985;BME280;9626;52.552;13.436;2022-12-11T09:18:28;100491.72;;;-2.21;100.00
18985;BME280;9626;52.552;13.436;2022-12-11T09:21:15;100495.31;;;-2.16;100.00
18985;BME280;9626;52.552;13.436;2022-12-11T09:23:42;100491.81;;;-2.18;100.00
18985;BME280;9626;52.552;13.436;2022-12-11T09:26:10;100483.28;;;-2.14;100.00
18985;BME280;9626;52.552;13.436;2022-12-11T09:28:38;100484.94;;;-2.16;100.00
18985;BME280;9626;52.552;13.436;2022-12-11T09:31:19;100486.78;;;-2.12;100.00
18985;BME280;9626;52.552;13.436;2022-12-11T09:33:45;100486.03;;;-2.08;100.00
18985;BME280;9626;52.552;13.436;2022-12-11T09:36:11;100484.13;;;-2.15;100.00
18985;BME280;9626;52.552;13.436;2022-12-11T09:38:38;100482.19;;;-1.92;100.00
18985;BME280;9626;52.552;13.436;2022-12-11T09:46:34;100478.44;;;-2.01;100.00
18985;BME280;9626;52.552;13.436;2022-12-11T09:49:02;100478.34;;;-2.05;100.00
18985;BME280;9626;52.552;13.436;2022-12-11T09:51:38;100471.31;;;-2.09;100.00
18985;BME280;9626;52.552;13.436;2022-12-11T09:54:09;100466.81;;;-2.14;100.00
18985;BME280;9626;52.552;13.436;2022-12-11T09:56:51;100466.13;;;-2.09;100.00
18985;BME280;9626;52.552;13.436;2022-12-11T10:02:44;100458.59;;;-1.99;100.00
18985;BME280;9626;52.552;13.436;2022-12-11T10:07:51;100458.69;;;-1.96;100.00
18985;BME280;9626;52.552;13.436;2022-12-11T10:10:43;100451.06;;;-1.90;100.00
18985;BME280;9626;52.552;13.436;2022-12-11T10:15:53;100433.69;;;-1.93;100.00
18985;BME280;9626;52.552;13.436;2022-12-11T10:18:24;100438.66;;;-2.00;100.00
18985;BME280;9626;52.552;13.436;2022-12-11T10:20:52;100435.16;;;-2.02;100.00
18985;BME280;9626;52.552;13.436;2022-12-11T10:23:23;100435.25;;;-1.99;100.00
18985;BME280;9626;52.552;13.436;2022-12-11T10:25:57;100429.22;;;-1.98;100.00
18985;BME280;9626;52.552;13.436;2022-12-11T10:28:27;100431.91;;;-1.94;100.00
18985;BME280;9626;52.552;13.436;2022-12-11T10:36:00;100420.31;;;-2.08;100.00
18985;BME280;9626;52.552;13.436;2022-12-11T10:38:31;100415.16;;;-2.07;100.00
18985;BME280;9626;52.552;13.436;2022-12-11T10:41:03;100416.88;;;-2.07;100.00
18985;BME280;9626;52.552;13.436;2022-12-11T10:46:04;100406.34;;;-2.12;100.00
18985;BME280;9626;52.552;13.436;2022-12-11T10:48:30;100413.38;;;-2.08;100.00
18985;BME280;9626;52.552;13.436;2022-12-11T10:51:03;100405.69;;;-2.05;100.00
18985;BME280;9626;52.552;13.436;2022-12-11T10:53:30;100414.22;;;-2.09;100.00
18985;BME280;9626;52.552;13.436;2022-12-11T10:55:59;100411.81;;;-2.02;100.00
18985;BME280;9626;52.552;13.436;2022-12-11T10:58:29;100415.47;;;-1.94;100.00
18985;BME280;9626;52.552;13.436;2022-12-11T11:01:12;100415.78;;;-1.83;100.00
18985;BME280;9626;52.552;13.436;2022-12-11T11:04:02;100402.72;;;-1.87;100.00
18985;BME280;9626;52.552;13.436;2022-12-11T11:06:29;100404.28;;;-1.93;100.00
18985;BME280;9626;52.552;13.436;2022-12-11T11:08:57;100392.97;;;-1.95;100.00
18985;BME280;9626;52.552;13.436;2022-12-11T11:11:49;100385.28;;;-1.92;100.00
18985;BME280;9626;52.552;13.436;2022-12-11T11:14:17;100395.72;;;-1.89;100.00
18985;BME280;9626;52.552;13.436;2022-12-11T11:16:46;100394.22;;;-1.81;100.00
18985;BME280;9626;52.552;13.436;2022-12-11T11:19:22;100394.22;;;-1.81;100.00
18985;BME280;9626;52.552;13.436;2022-12-11T11:21:55;100394.03;;;-1.87;100.00
18985;BME280;9626;52.552;13.436;2022-12-11T11:29:57;100387.22;;;-1.83;100.00
18985;BME280;9626;52.552;13.436;2022-12-11T11:32:31;100382.84;;;-1.84;100.00
18985;BME280;9626;52.552;13.436;2022-12-11T11:35:25;100378.63;;;-1.81;100.00
18985;BME280;9626;52.552;13.436;2022-12-11T11:37:56;100375.91;;;-1.85;100.00
18985;BME280;9626;52.552;13.436;2022-12-11T11:43:37;100375.09;;;-1.83;100.00
18985;BME280;9626;52.552;13.436;2022-12-11T11:46:11;100373.50;;;-1.78;100.00
18985;BME280;9626;52.552;13.436;2022-12-11T11:51:12;100364.06;;;-1.76;100.00
18985;BME280;9626;52.552;13.436;2022-12-11T11:53:40;100358.13;;;-1.70;100.00
18985;BME280;9626;52.552;13.436;2022-12-11T11:56:25;100361.38;;;-1.79;100.00
18985;BME280;9626;52.552;13.436;2022-12-11T12:01:21;100340.75;;;-1.73;100.00
18985;BME280;9626;52.552;13.436;2022-12-11T12:03:48;100353.03;;;-1.65;100.00
18985;BME280;9626;52.552;13.436;2022-12-11T12:09:05;100353.19;;;-1.61;100.00
18985;BME280;9626;52.552;13.436;2022-12-11T12:14:30;100344.50;;;-1.61;100.00
18985;BME280;9626;52.552;13.436;2022-12-11T12:17:09;100346.38;;;-1.54;100.00
18985;BME280;9626;52.552;13.436;2022-12-11T12:22:32;100341.56;;;-1.39;100.00
18985;BME280;9626;52.552;13.436;2022-12-11T12:25:16;100357.09;;;-1.42;100.00
18985;BME280;9626;52.552;13.436;2022-12-11T12:28:19;100343.22;;;-1.42;100.00
18985;BME280;9626;52.552;13.436;2022-12-11T12:33:52;100354.00;;;-1.25;100.00
18985;BME280;9626;52.552;13.436;2022-12-11T12:44:22;100342.63;;;-1.30;100.00
18985;BME280;9626;52.552;13.436;2022-12-11T12:47:02;100340.88;;;-1.31;100.00
18985;BME280;9626;52.552;13.436;2022-12-11T12:49:41;100336.50;;;-1.32;100.00
18985;BME280;9626;52.552;13.436;2022-12-11T12:54:51;100338.25;;;-1.31;100.00
18985;BME280;9626;52.552;13.436;2022-12-11T12:57:38;100335.66;;;-1.31;100.00
18985;BME280;9626;52.552;13.436;2022-12-11T13:00:07;100333.91;;;-1.32;100.00
18985;BME280;9626;52.552;13.436;2022-12-11T13:02:37;100335.63;;;-1.33;100.00
18985;BME280;9626;52.552;13.436;2022-12-11T13:05:21;100326.19;;;-1.29;100.00
18985;BME280;9626;52.552;13.436;2022-12-11T13:07:56;100332.22;;;-1.32;100.00
18985;BME280;9626;52.552;13.436;2022-12-11T13:10:35;100325.34;;;-1.28;100.00
18985;BME280;9626;52.552;13.436;2022-12-11T13:13:03;100324.44;;;-1.30;100.00
18985;BME280;9626;52.552;13.436;2022-12-11T13:15:40;100340.09;;;-1.27;100.00
18985;BME280;9626;52.552;13.436;2022-12-11T13:18:31;100331.50;;;-1.25;100.00
18985;BME280;9626;52.552;13.436;2022-12-11T13:21:00;100329.75;;;-1.24;100.00
18985;BME280;9626;52.552;13.436;2022-12-11T13:23:30;100329.69;;;-1.27;100.00
18985;BME280;9626;52.552;13.436;2022-12-11T13:26:02;100334.97;;;-1.24;100.00
18985;BME280;9626;52.552;13.436;2022-12-11T13:28:31;100335.03;;;-1.23;100.00
18985;BME280;9626;52.552;13.436;2022-12-11T13:33:46;100331.31;;;-1.32;100.00
18985;BME280;9626;52.552;13.436;2022-12-11T13:36:22;100331.31;;;-1.32;100.00
18985;BME280;9626;52.552;13.436;2022-12-11T13:38:53;100324.44;;;-1.30;100.00
18985;BME280;9626;52.552;13.436;2022-12-11T13:41:20;100329.63;;;-1.30;100.00
18985;BME280;9626;52.552;13.436;2022-12-11T13:43:48;100332.97;;;-1.36;100.00
18985;BME280;9626;52.552;13.436;2022-12-11T13:46:19;100332.22;;;-1.30;100.00
18985;BME280;9626;52.552;13.436;2022-12-11T13:48:54;100329.69;;;-1.27;100.00
18985;BME280;9626;52.552;13.436;2022-12-11T13:51:24;100332.28;;;-1.27;100.00
18985;BME280;9626;52.552;13.436;2022-12-11T13:56:31;100322.69;;;-1.31;100.00
18985;BME280;9626;52.552;13.436;2022-12-11T13:58:57;100313.91;;;-1.37;100.00
18985;BME280;9626;52.552;13.436;2022-12-11T14:01:30;100321.66;;;-1.38;100.00
18985;BME280;9626;52.552;13.436;2022-12-11T14:04:18;100313.78;;;-1.43;100.00